createdAt,value
2018-08-28T00:01:10.680Z,17.20
2018-08-28T00:03:38.685Z,17.30
2018-08-28T00:06:06.706Z,17.30
2018-08-28T00:08:34.754Z,17.40
2018-08-28T00:11:02.807Z,17.40
2018-08-28T00:13:30.807Z,17.40
2018-08-28T00:15:58.862Z,17.40
2018-08-28T00:18:26.929Z,17.40
2018-08-28T00:20:55.013Z,17.40
2018-08-28T00:23:23.052Z,17.40
2018-08-28T00:25:51.061Z,17.40
2018-08-28T00:28:19.107Z,17.40
2018-08-28T00:30:47.133Z,17.40
2018-08-28T00:33:15.387Z,17.40
2018-08-28T00:35:43.461Z,17.40
2018-08-28T00:38:11.503Z,17.40
2018-08-28T00:40:39.608Z,17.40
2018-08-28T00:43:07.627Z,17.40
2018-08-28T00:45:35.625Z,17.40
2018-08-28T00:48:03.653Z,17.30
2018-08-28T00:50:31.716Z,17.30
2018-08-28T00:53:00.111Z,17.40
2018-08-28T00:55:28.117Z,17.40
2018-08-28T00:57:56.112Z,17.30
2018-08-28T01:00:24.166Z,17.30
2018-08-28T01:02:52.171Z,17.30
2018-08-28T01:05:21.085Z,17.40
2018-08-28T01:07:49.124Z,17.40
2018-08-28T01:10:17.129Z,17.40
2018-08-28T01:12:45.137Z,17.40
2018-08-28T01:15:13.190Z,17.40
2018-08-28T01:17:41.185Z,17.40
2018-08-28T01:20:09.482Z,17.40
2018-08-28T01:22:37.729Z,17.40
2018-08-28T01:25:06.278Z,17.40
2018-08-28T01:27:35.537Z,17.30
2018-08-28T01:30:03.571Z,17.30
2018-08-28T01:32:32.109Z,17.30
2018-08-28T01:35:00.403Z,17.30
2018-08-28T01:37:28.397Z,17.30
2018-08-28T01:39:56.781Z,17.30
2018-08-28T01:42:25.475Z,17.30
2018-08-28T01:44:53.481Z,17.20
2018-08-28T01:47:22.199Z,17.20
2018-08-28T01:49:50.911Z,17.20
2018-08-28T01:52:19.285Z,17.30
2018-08-28T01:54:47.533Z,17.20
2018-08-28T01:57:15.620Z,17.20
2018-08-28T01:59:43.659Z,17.10
2018-08-28T02:02:11.737Z,17.10
2018-08-28T02:04:39.869Z,17.10
2018-08-28T02:07:07.914Z,17.10
2018-08-28T02:09:35.957Z,17.10
2018-08-28T02:12:03.953Z,17.10
2018-08-28T02:14:32.005Z,16.90
2018-08-28T02:17:00.042Z,16.80
2018-08-28T02:19:28.058Z,16.80
2018-08-28T02:21:56.109Z,16.80
2018-08-28T02:24:24.137Z,16.80
2018-08-28T02:26:52.404Z,16.80
2018-08-28T02:29:20.518Z,16.80
2018-08-28T02:31:48.582Z,16.80
2018-08-28T02:34:16.586Z,16.70
2018-08-28T02:36:44.666Z,16.70
2018-08-28T02:39:12.704Z,16.70
2018-08-28T02:41:41.237Z,16.70
2018-08-28T02:44:09.293Z,16.70
2018-08-28T02:46:37.845Z,16.70
2018-08-28T02:49:06.218Z,16.60
2018-08-28T02:51:34.550Z,16.60
2018-08-28T02:54:02.580Z,16.60
2018-08-28T02:56:30.670Z,16.60
2018-08-28T02:58:58.720Z,16.50
2018-08-28T03:01:26.972Z,16.50
2018-08-28T03:03:55.010Z,16.50
2018-08-28T03:06:23.509Z,16.50
2018-08-28T03:08:51.613Z,16.50
2018-08-28T03:11:19.685Z,16.50
2018-08-28T03:13:47.765Z,16.40
2018-08-28T03:16:15.809Z,16.30
2018-08-28T03:18:43.860Z,16.20
2018-08-28T03:21:11.913Z,16.20
2018-08-28T03:23:40.241Z,16.20
2018-08-28T03:26:08.694Z,16.10
2018-08-28T03:28:36.701Z,16.00
2018-08-28T03:31:04.757Z,15.90
2018-08-28T03:33:32.761Z,15.80
2018-08-28T03:36:01.094Z,15.70
2018-08-28T03:38:29.133Z,15.60
2018-08-28T03:40:57.429Z,15.50
2018-08-28T03:43:25.443Z,15.50
2018-08-28T03:45:53.577Z,15.40
2018-08-28T03:48:21.638Z,15.30
2018-08-28T03:50:49.648Z,15.20
2018-08-28T03:53:17.646Z,15.20
2018-08-28T03:55:45.682Z,15.10
2018-08-28T03:58:13.724Z,15.00
2018-08-28T04:00:41.773Z,15.00
2018-08-28T04:03:09.842Z,14.90
2018-08-28T04:05:37.887Z,14.90
2018-08-28T04:08:05.974Z,14.90
2018-08-28T04:10:33.982Z,14.90
2018-08-28T04:13:02.097Z,14.90
2018-08-28T04:15:30.145Z,14.90
2018-08-28T04:17:58.186Z,14.80
2018-08-28T04:20:26.189Z,14.80
2018-08-28T04:22:54.248Z,14.80
2018-08-28T04:25:22.258Z,14.80
2018-08-28T04:27:50.266Z,14.90
2018-08-28T04:30:18.340Z,15.00
2018-08-28T04:32:46.357Z,15.10
2018-08-28T04:35:14.423Z,15.10
2018-08-28T04:37:42.837Z,15.00
2018-08-28T04:40:10.845Z,15.00
2018-08-28T04:42:38.852Z,15.10
2018-08-28T04:45:06.986Z,15.10
2018-08-28T04:47:35.036Z,15.10
2018-08-28T04:50:03.033Z,15.10
2018-08-28T04:52:31.045Z,15.20
2018-08-28T04:54:59.403Z,15.30
2018-08-28T04:57:27.461Z,15.40
2018-08-28T04:59:55.502Z,15.50
2018-08-28T05:02:28.735Z,15.60
2018-08-28T05:04:57.093Z,15.70
2018-08-28T05:07:25.099Z,15.90
2018-08-28T05:09:53.214Z,16.00
2018-08-28T05:12:21.217Z,16.10
2018-08-28T05:14:49.217Z,16.10
2018-08-28T05:17:17.738Z,16.10
2018-08-28T05:19:45.741Z,16.20
2018-08-28T05:22:13.740Z,16.30
2018-08-28T05:24:41.866Z,16.50
2018-08-28T05:27:09.910Z,16.50
2018-08-28T05:29:38.092Z,16.60
2018-08-28T05:32:06.228Z,16.60
2018-08-28T05:34:34.229Z,16.60
2018-08-28T05:37:02.247Z,16.60
2018-08-28T05:39:30.281Z,16.70
2018-08-28T05:41:58.355Z,16.80
2018-08-28T05:44:26.442Z,16.90
2018-08-28T05:46:54.550Z,16.90
2018-08-28T05:49:22.636Z,16.90
2018-08-28T05:51:50.639Z,16.90
2018-08-28T05:54:18.667Z,17.00
2018-08-28T05:56:46.713Z,17.00
2018-08-28T05:59:14.849Z,17.10
2018-08-28T06:01:42.854Z,17.20
2018-08-28T06:04:10.906Z,17.30
2018-08-28T06:06:38.949Z,17.20
2018-08-28T06:09:07.809Z,17.40
2018-08-28T06:11:35.850Z,17.50
2018-08-28T06:14:03.850Z,17.60
2018-08-28T06:16:31.887Z,17.70
2018-08-28T06:18:59.949Z,17.70
2018-08-28T06:21:27.998Z,17.80
2018-08-28T06:23:56.042Z,17.80
2018-08-28T06:26:24.205Z,17.60
2018-08-28T06:28:52.197Z,17.60
2018-08-28T06:31:20.552Z,17.50
2018-08-28T06:33:48.651Z,17.60
2018-08-28T06:36:16.640Z,17.50
2018-08-28T06:38:44.758Z,17.50
2018-08-28T06:41:12.701Z,17.50
2018-08-28T06:43:40.789Z,17.80
2018-08-28T06:46:08.850Z,17.80
2018-08-28T06:48:36.841Z,18.00
2018-08-28T06:51:05.573Z,18.20
2018-08-28T06:53:33.572Z,18.20
2018-08-28T06:56:01.595Z,18.30
2018-08-28T06:58:29.633Z,18.60
2018-08-28T07:00:57.657Z,18.90
2018-08-28T07:03:25.702Z,18.60
2018-08-28T07:05:53.697Z,18.20
2018-08-28T07:08:21.823Z,17.90
2018-08-28T07:10:49.900Z,17.80
2018-08-28T07:13:17.981Z,18.00
2018-08-28T07:15:46.077Z,18.10
2018-08-28T07:18:14.129Z,18.30
2018-08-28T07:20:42.236Z,18.50
2018-08-28T07:23:10.240Z,18.70
2018-08-28T07:25:38.494Z,18.90
2018-08-28T07:28:06.465Z,19.00
2018-08-28T07:30:34.557Z,18.90
2018-08-28T07:33:02.558Z,18.80
2018-08-28T07:35:30.833Z,19.20
2018-08-28T07:37:58.918Z,19.50
2018-08-28T07:40:26.924Z,19.70
2018-08-28T07:42:55.039Z,19.80
2018-08-28T07:45:23.001Z,19.90
2018-08-28T07:47:51.357Z,19.80
2018-08-28T07:50:19.374Z,19.80
2018-08-28T07:52:47.376Z,19.60
2018-08-28T07:55:15.429Z,19.60
2018-08-28T07:57:43.413Z,19.50
2018-08-28T08:00:11.424Z,19.50
2018-08-28T08:02:39.465Z,19.80
2018-08-28T08:05:07.492Z,19.80
2018-08-28T08:07:35.578Z,19.80
2018-08-28T08:10:03.570Z,19.80
2018-08-28T08:12:32.002Z,20.10
2018-08-28T08:15:00.014Z,20.10
2018-08-28T08:17:28.042Z,20.10
2018-08-28T08:19:56.181Z,19.80
2018-08-28T08:22:24.218Z,19.80
2018-08-28T08:24:52.576Z,19.90
2018-08-28T08:27:20.569Z,20.10
2018-08-28T08:29:48.788Z,20.50
2018-08-28T08:32:17.178Z,20.50
2018-08-28T08:34:45.270Z,20.20
2018-08-28T08:37:13.330Z,20.30
2018-08-28T08:39:41.367Z,20.50
2018-08-28T08:42:09.465Z,20.90
2018-08-28T08:44:37.421Z,21.30
2018-08-28T08:47:05.539Z,21.40
2018-08-28T08:49:33.568Z,21.30
2018-08-28T08:52:01.605Z,21.40
2018-08-28T08:54:29.618Z,21.80
2018-08-28T08:56:57.651Z,22.10
2018-08-28T08:59:25.689Z,22.20
2018-08-28T09:01:53.697Z,22.20
2018-08-28T09:04:21.738Z,22.10
2018-08-28T09:06:49.741Z,21.80
2018-08-28T09:09:17.742Z,21.70
2018-08-28T09:11:46.071Z,21.90
2018-08-28T09:14:14.145Z,21.60
2018-08-28T09:16:42.180Z,20.80
2018-08-28T09:19:10.246Z,20.20
2018-08-28T09:21:38.213Z,20.30
2018-08-28T09:24:06.324Z,20.60
2018-08-28T09:26:34.341Z,21.20
2018-08-28T09:29:02.381Z,21.50
2018-08-28T09:31:30.394Z,21.60
2018-08-28T09:33:58.398Z,21.30
2018-08-28T09:36:26.753Z,21.30
2018-08-28T09:38:54.803Z,21.60
2018-08-28T09:41:22.753Z,21.20
2018-08-28T09:43:50.850Z,21.10
2018-08-28T09:46:18.889Z,21.50
2018-08-28T09:48:46.976Z,22.00
2018-08-28T09:51:14.970Z,21.80
2018-08-28T09:53:43.140Z,21.80
2018-08-28T09:56:11.137Z,22.10
2018-08-28T09:58:39.443Z,21.80
2018-08-28T10:01:13.080Z,22.10
2018-08-28T10:03:41.372Z,22.20
2018-08-28T10:06:09.374Z,22.30
2018-08-28T10:08:37.790Z,22.60
2018-08-28T10:11:05.937Z,22.80
2018-08-28T10:13:33.869Z,22.90
2018-08-28T10:16:01.926Z,22.60
2018-08-28T10:18:29.979Z,22.30
2018-08-28T10:20:58.063Z,22.20
2018-08-28T10:23:26.385Z,22.60
2018-08-28T10:25:54.524Z,22.30
2018-08-28T10:28:22.521Z,22.10
2018-08-28T10:30:50.533Z,22.10
2018-08-28T10:33:18.834Z,21.80
2018-08-28T10:35:46.836Z,21.80
2018-08-28T10:38:15.124Z,21.90
2018-08-28T10:40:43.085Z,21.90
2018-08-28T10:43:11.193Z,22.50
2018-08-28T10:45:39.194Z,23.00
2018-08-28T10:48:07.445Z,22.90
2018-08-28T10:50:35.490Z,22.30
2018-08-28T10:53:03.584Z,22.20
2018-08-28T10:55:31.589Z,22.10
2018-08-28T10:57:59.584Z,22.10
2018-08-28T11:00:27.621Z,22.10
2018-08-28T11:02:55.622Z,22.10
2018-08-28T11:05:23.669Z,21.90
2018-08-28T11:07:51.778Z,21.60
2018-08-28T11:10:19.825Z,21.60
2018-08-28T11:12:47.869Z,21.40
2018-08-28T11:15:15.877Z,21.50
2018-08-28T11:17:43.892Z,21.80
2018-08-28T11:20:11.921Z,22.30
2018-08-28T11:22:39.980Z,22.60
2018-08-28T11:25:08.046Z,22.60
2018-08-28T11:27:36.076Z,22.90
2018-08-28T11:30:04.091Z,23.20
2018-08-28T11:32:32.129Z,23.40
2018-08-28T11:35:00.150Z,23.50
2018-08-28T11:37:28.244Z,24.00
2018-08-28T11:39:56.501Z,24.20
2018-08-28T11:42:24.541Z,24.30
2018-08-28T11:44:52.585Z,24.60
2018-08-28T11:47:20.702Z,24.90
2018-08-28T11:49:48.774Z,24.70
2018-08-28T11:52:16.774Z,24.00
2018-08-28T11:54:44.782Z,24.10
2018-08-28T11:57:12.790Z,23.90
2018-08-28T11:59:40.878Z,23.50
2018-08-28T12:02:09.107Z,22.90
2018-08-28T12:04:37.086Z,22.20
2018-08-28T12:07:05.395Z,21.90
2018-08-28T12:09:33.358Z,21.70
2018-08-28T12:12:01.401Z,21.80
2018-08-28T12:14:29.414Z,21.80
2018-08-28T12:16:57.454Z,21.90
2018-08-28T12:19:25.485Z,22.20
2018-08-28T12:21:53.626Z,22.50
2018-08-28T12:24:21.705Z,22.70
2018-08-28T12:26:49.805Z,22.80
2018-08-28T12:29:17.824Z,22.90
2018-08-28T12:31:45.839Z,22.80
2018-08-28T12:34:14.127Z,23.10
2018-08-28T12:36:42.245Z,23.20
2018-08-28T12:39:10.213Z,23.20
2018-08-28T12:41:38.305Z,22.90
2018-08-28T12:44:06.480Z,22.90
2018-08-28T12:46:34.427Z,22.70
2018-08-28T12:49:02.421Z,22.60
2018-08-28T12:51:30.587Z,22.50
2018-08-28T12:53:58.573Z,22.40
2018-08-28T12:56:26.582Z,22.60
2018-08-28T12:58:54.679Z,23.10
2018-08-28T13:01:22.669Z,23.80
2018-08-28T13:03:50.674Z,24.10
2018-08-28T13:06:18.722Z,23.90
2018-08-28T13:08:46.731Z,24.30
2018-08-28T13:11:14.727Z,24.30
2018-08-28T13:13:42.764Z,24.40
2018-08-28T13:16:11.062Z,24.10
2018-08-28T13:18:39.070Z,23.60
2018-08-28T13:21:07.069Z,23.70
2018-08-28T13:23:35.209Z,23.50
2018-08-28T13:26:03.388Z,23.50
2018-08-28T13:28:31.848Z,23.90
2018-08-28T13:30:59.862Z,24.40
2018-08-28T13:33:28.271Z,24.80
2018-08-28T13:35:56.406Z,25.10
2018-08-28T13:38:24.445Z,24.50
2018-08-28T13:40:52.470Z,24.10
2018-08-28T13:43:20.471Z,23.90
2018-08-28T13:45:48.469Z,23.70
2018-08-28T13:48:16.504Z,23.40
2018-08-28T13:50:44.748Z,23.30
2018-08-28T13:53:12.829Z,23.00
2018-08-28T13:55:40.842Z,22.90
2018-08-28T13:58:08.874Z,22.90
2018-08-28T14:00:36.907Z,23.00
2018-08-28T14:03:04.933Z,23.00
2018-08-28T14:05:32.961Z,23.10
2018-08-28T14:08:00.974Z,23.30
2018-08-28T14:10:29.017Z,23.30
2018-08-28T14:12:57.102Z,23.40
2018-08-28T14:15:25.101Z,23.40
2018-08-28T14:17:53.390Z,23.40
2018-08-28T14:20:21.393Z,23.20
2018-08-28T14:22:49.533Z,23.00
2018-08-28T14:25:17.567Z,22.90
2018-08-28T14:27:45.577Z,22.80
2018-08-28T14:30:13.613Z,22.40
2018-08-28T14:32:41.653Z,22.40
2018-08-28T14:35:09.665Z,22.70
2018-08-28T14:37:37.682Z,22.80
2018-08-28T14:40:05.871Z,23.10
2018-08-28T14:42:33.980Z,23.60
2018-08-28T14:45:02.550Z,23.70
2018-08-28T14:47:30.557Z,23.80
2018-08-28T14:49:58.607Z,23.80
2018-08-28T14:52:26.876Z,23.80
2018-08-28T14:54:54.939Z,23.70
2018-08-28T14:57:22.933Z,23.70
2018-08-28T14:59:50.969Z,23.60
2018-08-28T15:02:19.016Z,23.40
2018-08-28T15:04:47.050Z,23.30
2018-08-28T15:07:15.049Z,23.50
2018-08-28T15:09:43.097Z,23.50
2018-08-28T15:12:11.140Z,23.40
2018-08-28T15:14:39.204Z,23.50
2018-08-28T15:17:07.328Z,23.90
2018-08-28T15:19:35.625Z,23.80
2018-08-28T15:22:03.633Z,23.70
2018-08-28T15:24:31.646Z,23.40
2018-08-28T15:26:59.736Z,23.40
2018-08-28T15:29:27.748Z,23.70
2018-08-28T15:31:56.606Z,24.20
2018-08-28T15:34:24.689Z,24.70
2018-08-28T15:36:52.789Z,24.90
2018-08-28T15:39:20.794Z,24.30
2018-08-28T15:41:48.794Z,23.60
2018-08-28T15:44:16.834Z,23.40
2018-08-28T15:46:44.846Z,23.40
2018-08-28T15:49:12.898Z,23.50
2018-08-28T15:51:41.036Z,23.70
2018-08-28T15:54:09.045Z,24.40
2018-08-28T15:56:37.046Z,25.30
2018-08-28T15:59:05.324Z,25.20
2018-08-28T16:01:33.258Z,25.30
2018-08-28T16:04:01.267Z,25.80
2018-08-28T16:06:29.381Z,26.20
2018-08-28T16:08:57.465Z,26.20
2018-08-28T16:11:25.609Z,25.80
2018-08-28T16:13:53.637Z,25.70
2018-08-28T16:16:22.024Z,25.80
2018-08-28T16:18:50.035Z,25.60
2018-08-28T16:21:18.046Z,25.50
2018-08-28T16:23:47.880Z,25.80
2018-08-28T16:26:15.901Z,26.20
2018-08-28T16:28:43.936Z,25.60
2018-08-28T16:31:11.986Z,25.60
2018-08-28T16:33:40.003Z,25.00
2018-08-28T16:36:08.061Z,24.30
2018-08-28T16:38:36.110Z,24.20
2018-08-28T16:41:04.216Z,23.80
2018-08-28T16:43:32.247Z,23.60
2018-08-28T16:46:00.373Z,23.20
2018-08-28T16:48:28.472Z,23.10
2018-08-28T16:50:56.650Z,23.10
2018-08-28T16:53:25.028Z,23.10
2018-08-28T16:55:53.076Z,22.90
2018-08-28T16:58:21.105Z,22.80
2018-08-28T17:00:49.190Z,22.50
2018-08-28T17:03:17.624Z,22.40
2018-08-28T17:05:45.686Z,22.30
2018-08-28T17:08:13.757Z,22.10
2018-08-28T17:10:41.798Z,21.90
2018-08-28T17:13:10.123Z,21.80
2018-08-28T17:15:38.136Z,21.80
2018-08-28T17:18:06.154Z,21.70
2018-08-28T17:20:34.201Z,21.60
2018-08-28T17:23:02.252Z,21.40
2018-08-28T17:25:30.325Z,21.30
2018-08-28T17:27:58.372Z,21.20
2018-08-28T17:30:26.447Z,21.10
2018-08-28T17:32:54.449Z,20.90
2018-08-28T17:35:22.462Z,20.90
2018-08-28T17:37:50.549Z,20.80
2018-08-28T17:40:18.629Z,20.80
2018-08-28T17:42:46.832Z,20.80
2018-08-28T17:45:14.693Z,20.60
2018-08-28T17:47:42.745Z,20.50
2018-08-28T17:50:10.966Z,20.50
2018-08-28T17:52:38.969Z,20.30
2018-08-28T17:55:07.262Z,20.10
2018-08-28T17:57:35.257Z,19.80
2018-08-28T18:00:03.309Z,19.50
2018-08-28T18:02:31.367Z,19.40
2018-08-28T18:04:59.409Z,19.20
2018-08-28T18:07:27.477Z,19.00
2018-08-28T18:09:55.503Z,18.90
2018-08-28T18:12:23.678Z,18.80
2018-08-28T18:14:51.685Z,18.60
2018-08-28T18:17:19.758Z,18.40
2018-08-28T18:19:48.079Z,18.20
2018-08-28T18:22:16.166Z,18.00
2018-08-28T18:24:44.214Z,17.90
2018-08-28T18:27:12.388Z,17.70
2018-08-28T18:29:40.522Z,17.60
2018-08-28T18:32:08.610Z,17.50
2018-08-28T18:34:36.669Z,17.40
2018-08-28T18:37:04.886Z,17.30
2018-08-28T18:39:32.916Z,17.20
2018-08-28T18:42:01.152Z,17.10
2018-08-28T18:44:29.230Z,17.20
2018-08-28T18:46:57.365Z,17.00
2018-08-28T18:49:25.398Z,17.10
2018-08-28T18:51:53.561Z,17.00
2018-08-28T18:54:21.869Z,17.00
2018-08-28T18:56:49.889Z,16.90
2018-08-28T18:59:18.245Z,16.80
2018-08-28T19:01:46.249Z,16.60
2018-08-28T19:04:14.253Z,16.50
2018-08-28T19:06:42.294Z,16.40
2018-08-28T19:09:10.402Z,16.20
2018-08-28T19:11:38.773Z,16.10
2018-08-28T19:14:06.994Z,16.00
2018-08-28T19:16:35.002Z,16.00
2018-08-28T19:19:03.053Z,16.00
2018-08-28T19:21:31.080Z,15.90
2018-08-28T19:24:06.061Z,15.80
2018-08-28T19:26:34.107Z,15.70
2018-08-28T19:29:02.166Z,15.60
2018-08-28T19:31:30.180Z,15.60
2018-08-28T19:33:58.196Z,15.50
2018-08-28T19:36:26.369Z,15.50
2018-08-28T19:38:54.369Z,15.40
2018-08-28T19:41:22.405Z,15.40
2018-08-28T19:43:50.866Z,15.30
2018-08-28T19:46:18.969Z,15.30
2018-08-28T19:48:47.045Z,15.20
2018-08-28T19:51:15.113Z,15.20
2018-08-28T19:53:43.159Z,15.20
2018-08-28T19:56:11.496Z,15.10
2018-08-28T19:58:39.679Z,15.00
2018-08-28T20:01:07.758Z,14.90
2018-08-28T20:03:35.756Z,14.90
2018-08-28T20:06:03.813Z,14.90
2018-08-28T20:08:31.882Z,14.90
2018-08-28T20:10:59.906Z,14.80
2018-08-28T20:13:27.945Z,14.80
2018-08-28T20:15:55.961Z,14.80
2018-08-28T20:18:24.005Z,14.70
2018-08-28T20:20:52.461Z,14.70
2018-08-28T20:23:20.413Z,14.60
2018-08-28T20:25:48.441Z,14.60
2018-08-28T20:28:16.505Z,14.50
2018-08-28T20:30:44.570Z,14.40
2018-08-28T20:33:12.645Z,14.30
2018-08-28T20:35:40.689Z,14.40
2018-08-28T20:38:08.781Z,14.40
2018-08-28T20:40:36.806Z,14.40
2018-08-28T20:43:04.822Z,14.40
2018-08-28T20:45:33.278Z,14.20
2018-08-28T20:48:01.286Z,14.20
2018-08-28T20:50:29.302Z,14.20
2018-08-28T20:52:57.359Z,14.30
2018-08-28T20:55:25.361Z,14.20
2018-08-28T20:57:53.412Z,14.10
2018-08-28T21:00:21.416Z,14.00
2018-08-28T21:02:49.510Z,14.00
2018-08-28T21:05:23.018Z,14.10
2018-08-28T21:07:51.082Z,14.00
2018-08-28T21:10:19.509Z,14.10
2018-08-28T21:12:47.615Z,14.10
2018-08-28T21:15:15.602Z,14.10
2018-08-28T21:17:43.645Z,14.00
2018-08-28T21:20:11.697Z,13.90
2018-08-28T21:22:39.722Z,13.90
2018-08-28T21:25:07.746Z,13.80
2018-08-28T21:27:35.752Z,13.80
2018-08-28T21:30:03.809Z,13.70
2018-08-28T21:32:32.091Z,13.70
2018-08-28T21:35:00.304Z,13.60
2018-08-28T21:37:28.358Z,13.60
2018-08-28T21:39:56.392Z,13.70
2018-08-28T21:42:24.414Z,13.70
2018-08-28T21:44:52.590Z,13.60
2018-08-28T21:47:20.629Z,13.60
2018-08-28T21:49:48.644Z,13.60
2018-08-28T21:52:16.713Z,13.60
2018-08-28T21:54:44.753Z,13.50
2018-08-28T21:57:12.769Z,13.40
2018-08-28T21:59:40.813Z,13.40
2018-08-28T22:02:09.084Z,13.30
2018-08-28T22:04:37.091Z,13.30
2018-08-28T22:07:10.767Z,13.30
2018-08-28T22:09:38.842Z,13.20
2018-08-28T22:12:06.921Z,13.20
2018-08-28T22:14:35.321Z,13.20
2018-08-28T22:17:03.522Z,13.20
2018-08-28T22:19:31.546Z,13.10
2018-08-28T22:21:59.896Z,13.10
2018-08-28T22:24:27.928Z,13.10
2018-08-28T22:26:55.933Z,13.00
2018-08-28T22:29:23.960Z,13.00
2018-08-28T22:31:52.006Z,13.00
2018-08-28T22:34:20.054Z,13.00
2018-08-28T22:36:54.609Z,13.00
2018-08-28T22:39:22.670Z,13.00
2018-08-28T22:41:50.677Z,13.00
2018-08-28T22:44:18.847Z,12.90
2018-08-28T22:46:46.847Z,12.90
2018-08-28T22:49:14.899Z,12.90
2018-08-28T22:51:43.073Z,12.90
2018-08-28T22:54:11.095Z,12.90
2018-08-28T22:56:39.101Z,12.80
2018-08-28T22:59:07.154Z,12.80
2018-08-28T23:01:35.256Z,12.70
2018-08-28T23:04:03.237Z,12.60
2018-08-28T23:06:31.285Z,12.70
2018-08-28T23:08:59.365Z,12.60
2018-08-28T23:11:27.380Z,12.60
2018-08-28T23:13:55.409Z,12.60
2018-08-28T23:16:23.454Z,12.50
2018-08-28T23:18:51.502Z,12.50
2018-08-28T23:21:19.553Z,12.60
2018-08-28T23:23:47.558Z,12.80
2018-08-28T23:26:15.576Z,12.80
2018-08-28T23:28:43.613Z,12.60
2018-08-28T23:31:11.623Z,12.50
2018-08-28T23:33:39.623Z,12.50
2018-08-28T23:36:07.685Z,12.40
2018-08-28T23:38:35.697Z,12.30
2018-08-28T23:41:03.868Z,12.20
2018-08-28T23:43:31.877Z,12.10
2018-08-28T23:45:59.885Z,12.10
2018-08-28T23:48:28.013Z,12.10
2018-08-28T23:50:56.026Z,12.00
2018-08-28T23:53:24.081Z,12.00
2018-08-28T23:55:52.122Z,12.00
2018-08-28T23:58:20.186Z,12.00
